Pacific Titan — WCZ6844 — position and weather

sailwx.info

Track history (hours):
 
Tides and Currents Weather Stations Pressure Air Temp Water Temp Dewpoint Dewpoint Depression Visibility Wind Speed Wind Dir Waves Ship Positions

Pacific Titan

Owner: WESTERN TOWBOAT CO, SEATTLE, WA. More information available from US FCC via Universal Licensing System and Coast Guard Vessel Documentation Center.

Last reported at 2016-Jun-26 19:05 UTC. Time now 2016-Jul-01 08:13 UTC.
Position N 51°33' W 127°52'.

Type: Tow > 200 m length. MMSI: 338855000.

Date/timePositionNaut miles runAvg speedWind from/ knotsBaromVisibWave heightAir tempDewpointWater temp
2016-Jun-26 19:05N 51°33' W 127°52'6 9.3
2016-Jun-26 18:27N 51°27' W 127°51'8 9.0
2016-Jun-26 17:33N 51°19' W 127°53'9 8.7
2016-Jun-26 16:33N 51°10' W 127°51'9 9.0
2016-Jun-26 15:33N 51°04' W 127°41'10 9.7
2016-Jun-26 14:33N 50°57' W 127°29'10 9.7
2016-Jun-26 13:32N 50°52' W 127°17'9 9.3
2016-Jun-26 12:32N 50°47' W 127°04'9 9.3
2016-Jun-26 11:33N 50°41' W 126°53'5210.0
2016-Jun-26 06:24N 50°22' W 125°38'810.0
2016-Jun-26 05:33N 50°19' W 125°25'1010.0
2016-Jun-26 04:34N 50°10' W 125°21'5 5.2
2016-Jun-26 03:33N 50°06' W 125°17'4 3.8
2016-Jun-26 02:33N 50°02' W 125°14'5 5.1
2016-Jun-26 01:33N 49°58' W 125°09'5 4.9
2016-Jun-26 00:34N 49°55' W 125°04'4 4.0
2016-Jun-25 23:33N 49°52' W 124°59'4 3.8
2016-Jun-25 22:34N 49°50' W 124°54'4 4.1
2016-Jun-25 21:33N 49°47' W 124°49'4 3.9
2016-Jun-25 20:33N 49°45' W 124°45'8 8.1
2016-Jun-25 19:33N 49°40' W 124°35'1010.1
2016-Jun-25 18:34N 49°34' W 124°22'10 9.8
2016-Jun-25 17:34N 49°29' W 124°09'1010.0
2016-Jun-25 16:33N 49°23' W 123°57'1010.2
2016-Jun-25 15:33N 49°17' W 123°44'1010.4
2016-Jun-25 14:33N 49°10' W 123°32'1010.4
2016-Jun-25 13:33N 49°03' W 123°20'1010.1
2016-Jun-25 12:33N 48°57' W 123°08'1010.2
2016-Jun-25 11:33N 48°50' W 122°57'10 9.8
2016-Jun-25 10:33N 48°44' W 122°45'8 7.8
2016-Jun-25 09:33N 48°36' W 122°45'8 7.6
2016-Jun-25 08:33N 48°29' W 122°44'9 8.7
2016-Jun-25 07:32N 48°20' W 122°46'10 8.8
2016-Jun-25 06:23N 48°10' W 122°44'8 9.7
2016-Jun-25 05:32N 48°03' W 122°37'9 9.6
2016-Jun-25 04:33N 47°55' W 122°29'9 9.4
2016-Jun-25 03:33N 47°46' W 122°26'9 8.9
2016-Jun-25 02:33N 47°37' W 122°25'5 5.1
2016-Jun-25 01:32N 47°33' W 122°21'0 0.0
2016-Jun-25 00:33N 47°33' W 122°21'0 0.3
2016-Jun-24 23:31N 47°33' W 122°20'0 0.3
2016-Jun-24 22:33N 47°33' W 122°20'8 7.8
2016-Jun-24 21:33N 47°40' W 122°26'2 1.9
2016-Jun-24 20:34N 47°40' W 122°24'1 1.3
2016-Jun-24 19:34N 47°39' W 122°22'0 0.0
2016-Jun-24 18:33N 47°39' W 122°22'0 0.0
2016-Jun-24 17:34N 47°39' W 122°22'0 0.0
2016-Jun-24 16:33N 47°39' W 122°22'0 0.0
2016-Jun-24 15:34N 47°39' W 122°22'  
2016-Jun-20 18:08N 47°39' W 122°22'1 2.6
2016-Jun-20 17:33N 47°40' W 122°24'2 2.0
2016-Jun-20 16:33N 47°39' W 122°26'4 4.2
2016-Jun-20 15:33N 47°36' W 122°22'8 7.5
2016-Jun-20 14:34N 47°42' W 122°28'8 8.2
2016-Jun-20 13:33N 47°50' W 122°28'6 5.9
2016-Jun-20 12:33N 47°56' W 122°31'8 7.9
2016-Jun-20 11:33N 48°02' W 122°39'1010.0
2016-Jun-20 10:32N 48°11' W 122°47'1010.4
2016-Jun-20 09:32N 48°21' W 122°46'9 9.7
2016-Jun-20 08:34N 48°30' W 122°45'1010.5
2016-Jun-20 07:33N 48°41' W 122°44'10 9.7
2016-Jun-20 06:33N 48°47' W 122°54'1010.5
2016-Jun-20 05:33N 48°53' W 123°08'1110.8
2016-Jun-20 04:33N 49°00' W 123°20'1110.9
2016-Jun-20 03:33N 49°08' W 123°31'1110.5
2016-Jun-20 02:33N 49°15' W 123°43'1010.2
2016-Jun-20 01:33N 49°22' W 123°56'10 9.8
2016-Jun-20 00:33N 49°28' W 124°07'10 9.8
2016-Jun-19 23:33N 49°33' W 124°20'1010.0
2016-Jun-19 22:33N 49°39' W 124°33'1010.2
2016-Jun-19 21:33N 49°45' W 124°46'10 9.8
2016-Jun-19 20:33N 49°51' W 124°58'10 9.9
2016-Jun-19 19:33N 49°57' W 125°09'1110.5
2016-Jun-19 18:33N 50°06' W 125°18'7 7.4
2016-Jun-19 17:33N 50°13' W 125°23'39 7.1
2016-Jun-19 12:04N 50°29' W 126°18'6 9.8
2016-Jun-19 11:28N 50°30' W 126°27'10 9.3
2016-Jun-19 10:24N 50°32' W 126°42'7 8.2
2016-Jun-19 09:33N 50°38' W 126°48'10 9.4
2016-Jun-19 08:33N 50°43' W 127°01'10 9.9
2016-Jun-19 07:33N 50°49' W 127°13'1010.4
2016-Jun-19 06:33N 50°55' W 127°26'10 9.9
2016-Jun-19 05:33N 51°02' W 127°38'1010.3
2016-Jun-19 04:33N 51°09' W 127°50'1310.1
2016-Jun-19 03:16N 51°21' W 127°57'  
Track history (hours):
 
Tides and Currents Weather Stations Pressure Air Temp Water Temp Dewpoint Dewpoint Depression Visibility Wind Speed Wind Dir Waves Ship Positions

Pacific Titan

Owner: WESTERN TOWBOAT CO, SEATTLE, WA. More information available from US FCC via Universal Licensing System and Coast Guard Vessel Documentation Center.

Last reported at 2016-Jun-26 19:05 UTC. Time now 2016-Jul-01 08:13 UTC.
Position N 51°33' W 127°52'.

Type: Tow > 200 m length. MMSI: 338855000.

Date/timePositionNaut miles runAvg speedWind from/ knotsBaromVisibWave heightAir tempDewpointWater temp
2016-Jun-26 19:05N 51°33' W 127°52'6 9.3
2016-Jun-26 18:27N 51°27' W 127°51'8 9.0
2016-Jun-26 17:33N 51°19' W 127°53'9 8.7
2016-Jun-26 16:33N 51°10' W 127°51'9 9.0
2016-Jun-26 15:33N 51°04' W 127°41'10 9.7
2016-Jun-26 14:33N 50°57' W 127°29'10 9.7
2016-Jun-26 13:32N 50°52' W 127°17'9 9.3
2016-Jun-26 12:32N 50°47' W 127°04'9 9.3
2016-Jun-26 11:33N 50°41' W 126°53'5210.0
2016-Jun-26 06:24N 50°22' W 125°38'810.0
2016-Jun-26 05:33N 50°19' W 125°25'1010.0
2016-Jun-26 04:34N 50°10' W 125°21'5 5.2
2016-Jun-26 03:33N 50°06' W 125°17'4 3.8
2016-Jun-26 02:33N 50°02' W 125°14'5 5.1
2016-Jun-26 01:33N 49°58' W 125°09'5 4.9
2016-Jun-26 00:34N 49°55' W 125°04'4 4.0
2016-Jun-25 23:33N 49°52' W 124°59'4 3.8
2016-Jun-25 22:34N 49°50' W 124°54'4 4.1
2016-Jun-25 21:33N 49°47' W 124°49'4 3.9
2016-Jun-25 20:33N 49°45' W 124°45'8 8.1
2016-Jun-25 19:33N 49°40' W 124°35'1010.1
2016-Jun-25 18:34N 49°34' W 124°22'10 9.8
2016-Jun-25 17:34N 49°29' W 124°09'1010.0
2016-Jun-25 16:33N 49°23' W 123°57'1010.2
2016-Jun-25 15:33N 49°17' W 123°44'1010.4
2016-Jun-25 14:33N 49°10' W 123°32'1010.4
2016-Jun-25 13:33N 49°03' W 123°20'1010.1
2016-Jun-25 12:33N 48°57' W 123°08'1010.2
2016-Jun-25 11:33N 48°50' W 122°57'10 9.8
2016-Jun-25 10:33N 48°44' W 122°45'8 7.8
2016-Jun-25 09:33N 48°36' W 122°45'8 7.6
2016-Jun-25 08:33N 48°29' W 122°44'9 8.7
2016-Jun-25 07:32N 48°20' W 122°46'10 8.8
2016-Jun-25 06:23N 48°10' W 122°44'8 9.7
2016-Jun-25 05:32N 48°03' W 122°37'9 9.6
2016-Jun-25 04:33N 47°55' W 122°29'9 9.4
2016-Jun-25 03:33N 47°46' W 122°26'9 8.9
2016-Jun-25 02:33N 47°37' W 122°25'5 5.1
2016-Jun-25 01:32N 47°33' W 122°21'0 0.0
2016-Jun-25 00:33N 47°33' W 122°21'0 0.3
2016-Jun-24 23:31N 47°33' W 122°20'0 0.3
2016-Jun-24 22:33N 47°33' W 122°20'8 7.8
2016-Jun-24 21:33N 47°40' W 122°26'2 1.9
2016-Jun-24 20:34N 47°40' W 122°24'1 1.3
2016-Jun-24 19:34N 47°39' W 122°22'0 0.0
2016-Jun-24 18:33N 47°39' W 122°22'0 0.0
2016-Jun-24 17:34N 47°39' W 122°22'0 0.0
2016-Jun-24 16:33N 47°39' W 122°22'0 0.0
2016-Jun-24 15:34N 47°39' W 122°22'  
2016-Jun-20 18:08N 47°39' W 122°22'1 2.6
2016-Jun-20 17:33N 47°40' W 122°24'2 2.0
2016-Jun-20 16:33N 47°39' W 122°26'4 4.2
2016-Jun-20 15:33N 47°36' W 122°22'8 7.5
2016-Jun-20 14:34N 47°42' W 122°28'8 8.2
2016-Jun-20 13:33N 47°50' W 122°28'6 5.9
2016-Jun-20 12:33N 47°56' W 122°31'8 7.9
2016-Jun-20 11:33N 48°02' W 122°39'1010.0
2016-Jun-20 10:32N 48°11' W 122°47'1010.4
2016-Jun-20 09:32N 48°21' W 122°46'9 9.7
2016-Jun-20 08:34N 48°30' W 122°45'1010.5
2016-Jun-20 07:33N 48°41' W 122°44'10 9.7
2016-Jun-20 06:33N 48°47' W 122°54'1010.5
2016-Jun-20 05:33N 48°53' W 123°08'1110.8
2016-Jun-20 04:33N 49°00' W 123°20'1110.9
2016-Jun-20 03:33N 49°08' W 123°31'1110.5
2016-Jun-20 02:33N 49°15' W 123°43'1010.2
2016-Jun-20 01:33N 49°22' W 123°56'10 9.8
2016-Jun-20 00:33N 49°28' W 124°07'10 9.8
2016-Jun-19 23:33N 49°33' W 124°20'1010.0
2016-Jun-19 22:33N 49°39' W 124°33'1010.2
2016-Jun-19 21:33N 49°45' W 124°46'10 9.8
2016-Jun-19 20:33N 49°51' W 124°58'10 9.9
2016-Jun-19 19:33N 49°57' W 125°09'1110.5
2016-Jun-19 18:33N 50°06' W 125°18'7 7.4
2016-Jun-19 17:33N 50°13' W 125°23'39 7.1
2016-Jun-19 12:04N 50°29' W 126°18'6 9.8
2016-Jun-19 11:28N 50°30' W 126°27'10 9.3
2016-Jun-19 10:24N 50°32' W 126°42'7 8.2
2016-Jun-19 09:33N 50°38' W 126°48'10 9.4
2016-Jun-19 08:33N 50°43' W 127°01'10 9.9
2016-Jun-19 07:33N 50°49' W 127°13'1010.4
2016-Jun-19 06:33N 50°55' W 127°26'10 9.9
2016-Jun-19 05:33N 51°02' W 127°38'1010.3
2016-Jun-19 04:33N 51°09' W 127°50'1310.1
2016-Jun-19 03:16N 51°21' W 127°57'  

Dump ship's entire track history